createdAt,value
2023-01-17T00:01:34.185Z,100.00
2023-01-17T00:04:19.923Z,100.00
2023-01-17T00:07:05.634Z,100.00
2023-01-17T00:09:51.066Z,100.00
2023-01-17T00:12:18.188Z,100.00
2023-01-17T00:14:45.023Z,100.00
2023-01-17T00:17:12.097Z,100.00
2023-01-17T00:19:57.640Z,100.00
2023-01-17T00:22:45.852Z,100.00
2023-01-17T00:25:33.468Z,100.00
2023-01-17T00:28:00.660Z,100.00
2023-01-17T00:30:28.025Z,100.00
2023-01-17T00:32:54.872Z,100.00
2023-01-17T00:35:25.751Z,100.00
2023-01-17T00:38:22.679Z,100.00
2023-01-17T00:40:49.957Z,100.00
2023-01-17T00:43:38.018Z,100.00
2023-01-17T00:46:24.109Z,100.00
2023-01-17T00:49:09.750Z,100.00
2023-01-17T00:51:55.885Z,100.00
2023-01-17T00:54:41.398Z,100.00
2023-01-17T00:57:27.049Z,100.00
2023-01-17T01:00:12.723Z,100.00
2023-01-17T01:02:58.255Z,100.00
2023-01-17T01:05:43.946Z,100.00
2023-01-17T01:08:43.673Z,99.66
2023-01-17T01:11:35.238Z,97.22
2023-01-17T01:14:21.504Z,96.98
2023-01-17T01:17:07.019Z,96.79
2023-01-17T01:19:52.540Z,94.98
2023-01-17T01:22:38.180Z,94.34
2023-01-17T01:25:24.292Z,95.02
2023-01-17T01:28:09.943Z,96.23
2023-01-17T01:30:55.508Z,94.67
2023-01-17T01:33:22.286Z,93.30
2023-01-17T01:35:54.332Z,94.66
2023-01-17T01:38:23.835Z,93.79
2023-01-17T01:40:53.416Z,92.63
2023-01-17T01:43:41.520Z,91.20
2023-01-17T01:46:11.750Z,88.65
2023-01-17T01:48:53.823Z,90.94
2023-01-17T01:51:28.028Z,92.46
2023-01-17T01:54:02.889Z,91.35
2023-01-17T01:56:31.378Z,88.38
2023-01-17T01:59:01.407Z,86.60
2023-01-17T02:01:29.892Z,84.52
2023-01-17T02:03:57.248Z,83.88
2023-01-17T02:06:32.544Z,85.84
2023-01-17T02:09:02.277Z,85.75
2023-01-17T02:11:29.259Z,86.06
2023-01-17T02:13:56.137Z,87.50
2023-01-17T02:16:44.541Z,86.69
2023-01-17T02:19:49.759Z,86.99
2023-01-17T02:22:31.710Z,87.24
2023-01-17T02:25:04.542Z,87.46
2023-01-17T02:28:17.791Z,84.92
2023-01-17T02:30:50.651Z,84.41
2023-01-17T02:33:25.614Z,85.14
2023-01-17T02:36:33.303Z,88.33
2023-01-17T02:39:12.200Z,89.57
2023-01-17T02:41:47.238Z,89.11
2023-01-17T02:44:18.591Z,88.38
2023-01-17T02:46:50.573Z,89.25
2023-01-17T02:49:21.567Z,88.55
2023-01-17T02:52:26.776Z,88.53
2023-01-17T02:55:11.595Z,89.34
2023-01-17T02:57:53.577Z,90.18
2023-01-17T03:00:32.963Z,91.00
2023-01-17T03:03:10.436Z,89.43
2023-01-17T03:05:49.521Z,90.35
2023-01-17T03:08:17.403Z,95.21
2023-01-17T03:10:45.367Z,96.12
2023-01-17T03:13:12.332Z,96.93
2023-01-17T03:15:40.176Z,96.70
2023-01-17T03:18:13.017Z,96.16
2023-01-17T03:20:39.978Z,93.77
2023-01-17T03:23:06.991Z,94.17
2023-01-17T03:25:34.143Z,94.24
2023-01-17T03:28:00.986Z,94.59
2023-01-17T03:30:28.026Z,94.64
2023-01-17T03:32:54.870Z,91.37
2023-01-17T03:35:21.760Z,89.02
2023-01-17T03:37:48.725Z,88.92
2023-01-17T03:40:15.591Z,89.08
2023-01-17T03:42:42.899Z,90.27
2023-01-17T03:45:10.261Z,88.90
2023-01-17T03:47:37.174Z,89.55
2023-01-17T03:50:04.743Z,95.41
2023-01-17T03:52:32.553Z,90.10
2023-01-17T03:54:59.766Z,89.61
2023-01-17T03:57:26.672Z,89.69
2023-01-17T03:59:53.492Z,92.59
2023-01-17T04:02:20.568Z,94.30
2023-01-17T04:04:47.493Z,94.81
2023-01-17T04:07:14.360Z,95.62
2023-01-17T04:09:41.248Z,97.85
2023-01-17T04:12:09.547Z,99.22
2023-01-17T04:14:36.452Z,95.87
2023-01-17T04:17:04.237Z,90.83
2023-01-17T04:19:34.170Z,92.09
2023-01-17T04:22:01.068Z,90.33
2023-01-17T04:24:28.036Z,89.70
2023-01-17T04:26:54.940Z,93.53
2023-01-17T04:29:21.822Z,93.98
2023-01-17T04:31:48.899Z,92.70
2023-01-17T04:34:15.837Z,92.78
2023-01-17T04:36:42.688Z,94.67
2023-01-17T04:39:09.531Z,95.35
2023-01-17T04:41:36.420Z,94.25
2023-01-17T04:44:04.092Z,92.39
2023-01-17T04:46:31.268Z,90.72
2023-01-17T04:48:59.127Z,89.52
2023-01-17T04:51:26.173Z,87.91
2023-01-17T04:53:53.016Z,88.04
2023-01-17T04:56:19.909Z,87.93
2023-01-17T04:58:46.851Z,87.79
2023-01-17T05:01:13.942Z,88.99
2023-01-17T05:03:40.876Z,88.71
2023-01-17T05:06:07.833Z,89.84
2023-01-17T05:08:34.748Z,88.83
2023-01-17T05:11:01.751Z,88.03
2023-01-17T05:13:28.703Z,88.78
2023-01-17T05:15:57.860Z,93.07
2023-01-17T05:18:25.178Z,91.43
2023-01-17T05:20:52.261Z,88.74
2023-01-17T05:23:19.089Z,90.42
2023-01-17T05:25:45.986Z,88.63
2023-01-17T05:28:14.006Z,87.82
2023-01-17T05:30:41.440Z,87.60
2023-01-17T05:33:10.351Z,87.44
2023-01-17T05:35:37.754Z,87.34
2023-01-17T05:38:05.061Z,88.84
2023-01-17T05:40:33.283Z,87.45
2023-01-17T05:43:01.420Z,88.08
2023-01-17T05:45:29.907Z,89.05
2023-01-17T05:47:58.458Z,88.76
2023-01-17T05:50:31.083Z,88.76
2023-01-17T05:53:03.780Z,85.66
2023-01-17T05:55:31.998Z,83.46
2023-01-17T05:57:59.731Z,84.58
2023-01-17T06:00:27.484Z,82.94
2023-01-17T06:02:55.888Z,85.96
2023-01-17T06:05:23.447Z,86.76
2023-01-17T06:07:50.373Z,87.42
2023-01-17T06:10:19.241Z,86.40
2023-01-17T06:12:46.858Z,86.84
2023-01-17T06:15:15.495Z,88.32
2023-01-17T06:17:42.506Z,88.86
2023-01-17T06:20:11.544Z,90.64
2023-01-17T06:22:38.416Z,90.13
2023-01-17T06:25:05.700Z,90.42
2023-01-17T06:27:32.606Z,90.78
2023-01-17T06:29:59.455Z,92.83
2023-01-17T06:32:26.276Z,94.32
2023-01-17T06:34:53.409Z,94.82
2023-01-17T06:37:20.260Z,95.31
2023-01-17T06:39:47.180Z,94.54
2023-01-17T06:42:14.058Z,94.47
2023-01-17T06:44:41.061Z,93.11
2023-01-17T06:47:07.924Z,93.62
2023-01-17T06:49:34.774Z,91.07
2023-01-17T06:52:01.643Z,90.30
2023-01-17T06:54:28.534Z,89.01
2023-01-17T06:56:55.461Z,89.02
2023-01-17T06:59:22.422Z,87.52
2023-01-17T07:01:49.305Z,87.55
2023-01-17T07:04:16.261Z,86.78
2023-01-17T07:06:43.128Z,87.00
2023-01-17T07:09:10.081Z,87.45
2023-01-17T07:11:36.973Z,87.70
2023-01-17T07:14:03.840Z,88.22
2023-01-17T07:16:30.801Z,85.22
2023-01-17T07:18:58.197Z,87.82
2023-01-17T07:21:25.164Z,91.22
2023-01-17T07:23:52.091Z,92.04
2023-01-17T07:26:19.082Z,91.82
2023-01-17T07:28:46.001Z,91.30
2023-01-17T07:34:29.242Z,92.34
2023-01-17T07:36:56.906Z,92.52
2023-01-17T07:39:23.883Z,92.83
2023-01-17T07:41:50.728Z,91.98
2023-01-17T07:44:19.625Z,90.82
2023-01-17T07:46:46.774Z,91.08
2023-01-17T07:49:14.713Z,89.34
2023-01-17T07:51:41.597Z,88.86
2023-01-17T07:54:08.565Z,86.94
2023-01-17T07:56:35.520Z,87.94
2023-01-17T07:59:02.427Z,85.66
2023-01-17T08:01:29.494Z,83.44
2023-01-17T08:03:56.520Z,82.32
2023-01-17T08:06:25.698Z,82.07
2023-01-17T08:08:56.542Z,85.62
2023-01-17T08:11:23.591Z,86.26
2023-01-17T08:17:11.579Z,86.08
2023-01-17T08:19:38.547Z,87.36
2023-01-17T08:22:05.404Z,88.58
2023-01-17T08:24:32.307Z,94.66
2023-01-17T08:26:59.231Z,95.41
2023-01-17T08:29:26.273Z,96.72
2023-01-17T08:31:54.180Z,97.35
2023-01-17T08:34:21.174Z,98.73
2023-01-17T08:36:48.066Z,97.51
2023-01-17T08:39:15.046Z,96.26
2023-01-17T08:41:41.951Z,96.51
2023-01-17T08:44:08.853Z,95.18
2023-01-17T08:46:38.352Z,95.49
2023-01-17T08:49:08.260Z,93.12
2023-01-17T08:51:36.580Z,87.71
2023-01-17T08:54:03.564Z,82.11
2023-01-17T08:56:30.563Z,75.66
2023-01-17T08:58:57.424Z,69.62
2023-01-17T09:01:24.410Z,63.71
2023-01-17T09:03:52.046Z,61.34
2023-01-17T09:06:18.991Z,64.59
2023-01-17T09:08:47.117Z,64.74
2023-01-17T09:11:18.043Z,66.66
2023-01-17T09:13:45.065Z,65.58
2023-01-17T09:16:12.239Z,65.81
2023-01-17T09:18:39.347Z,65.23
2023-01-17T09:21:25.970Z,67.11
2023-01-17T09:23:53.727Z,62.16
2023-01-17T09:26:22.180Z,61.97
2023-01-17T09:28:49.546Z,61.92
2023-01-17T09:31:17.745Z,61.21
2023-01-17T09:33:44.839Z,60.23
2023-01-17T09:36:12.187Z,64.28
2023-01-17T09:38:40.407Z,65.79
2023-01-17T09:41:31.378Z,65.98
2023-01-17T09:44:32.162Z,67.16
2023-01-17T09:47:11.505Z,64.76
2023-01-17T09:49:44.461Z,66.74
2023-01-17T09:52:23.392Z,63.25
2023-01-17T09:54:51.709Z,61.87
2023-01-17T09:57:41.845Z,58.54
2023-01-17T10:00:13.009Z,51.06
2023-01-17T10:03:01.646Z,49.77
2023-01-17T10:05:43.488Z,49.53
2023-01-17T10:08:29.843Z,46.65
2023-01-17T10:11:33.543Z,51.31
2023-01-17T10:14:18.860Z,53.89
2023-01-17T10:16:48.445Z,53.20
2023-01-17T10:19:23.085Z,53.69
2023-01-17T10:22:15.414Z,55.42
2023-01-17T10:25:04.161Z,55.90
2023-01-17T10:27:35.104Z,59.40
2023-01-17T10:30:05.168Z,57.40
2023-01-17T10:32:34.780Z,57.03
2023-01-17T10:35:17.478Z,56.10
2023-01-17T10:37:45.604Z,56.63
2023-01-17T10:40:18.140Z,54.87
2023-01-17T10:42:53.847Z,54.60
2023-01-17T10:45:28.604Z,55.59
2023-01-17T10:48:29.909Z,52.99
2023-01-17T10:51:12.538Z,49.47
2023-01-17T10:53:59.034Z,45.25
2023-01-17T10:56:30.225Z,41.13
2023-01-17T10:59:12.208Z,40.26
2023-01-17T11:01:39.514Z,40.43
2023-01-17T11:04:22.835Z,35.04
2023-01-17T11:07:13.318Z,34.16
2023-01-17T11:09:42.881Z,37.32
2023-01-17T11:12:39.788Z,40.51
2023-01-17T11:15:09.401Z,43.22
2023-01-17T11:17:48.986Z,43.32
2023-01-17T11:20:26.352Z,41.15
2023-01-17T11:23:08.282Z,43.76
2023-01-17T11:25:35.456Z,47.00
2023-01-17T11:28:18.103Z,50.86
2023-01-17T11:30:57.153Z,48.55
2023-01-17T11:33:53.988Z,49.56
2023-01-17T11:36:22.322Z,48.70
2023-01-17T11:39:18.135Z,48.42
2023-01-17T11:41:47.862Z,48.62
2023-01-17T11:44:34.197Z,49.31
2023-01-17T11:47:11.224Z,49.44
2023-01-17T11:49:42.987Z,48.78
2023-01-17T11:52:33.071Z,48.05
2023-01-17T11:55:00.388Z,47.47
2023-01-17T11:57:31.638Z,46.53
2023-01-17T12:00:19.514Z,46.23
2023-01-17T12:03:15.329Z,45.90
2023-01-17T12:05:42.003Z,44.71
2023-01-17T12:08:42.919Z,42.27
2023-01-17T12:11:14.457Z,44.00
2023-01-17T12:14:02.269Z,42.65
2023-01-17T12:16:47.949Z,41.36
2023-01-17T12:19:33.103Z,42.06
2023-01-17T12:22:00.357Z,42.30
2023-01-17T12:24:51.403Z,43.58
2023-01-17T12:27:41.962Z,42.84
2023-01-17T12:30:24.577Z,42.15
2023-01-17T12:33:21.641Z,42.29
2023-01-17T12:36:02.175Z,42.75
2023-01-17T12:38:35.990Z,42.57
2023-01-17T12:41:06.517Z,42.80
2023-01-17T12:43:43.258Z,44.58
2023-01-17T12:46:21.090Z,44.78
2023-01-17T12:48:52.325Z,45.19
2023-01-17T12:51:27.877Z,46.26
2023-01-17T12:54:16.203Z,46.17
2023-01-17T12:56:50.784Z,45.91
2023-01-17T12:59:38.172Z,46.91
2023-01-17T13:02:33.695Z,47.63
2023-01-17T13:05:11.831Z,47.87
2023-01-17T13:07:54.019Z,48.62
2023-01-17T13:10:31.891Z,49.83
2023-01-17T13:13:34.630Z,50.44
2023-01-17T13:16:43.387Z,50.65
2023-01-17T13:19:29.052Z,50.13
2023-01-17T13:21:57.545Z,49.14
2023-01-17T13:24:48.395Z,49.50
2023-01-17T13:27:44.535Z,49.13
2023-01-17T13:30:35.717Z,49.10
2023-01-17T13:33:10.298Z,49.87
2023-01-17T13:36:15.793Z,50.26
2023-01-17T13:38:57.653Z,51.07
2023-01-17T13:41:50.779Z,52.88
2023-01-17T13:44:24.998Z,53.06
2023-01-17T13:47:02.179Z,53.75
2023-01-17T13:49:31.922Z,53.57
2023-01-17T13:52:23.169Z,54.54
2023-01-17T13:54:57.274Z,54.52
2023-01-17T13:57:29.748Z,52.69
2023-01-17T13:59:59.230Z,52.46
2023-01-17T14:02:32.046Z,54.01
2023-01-17T14:05:21.493Z,54.83
2023-01-17T14:07:58.408Z,56.50
2023-01-17T14:10:34.633Z,55.81
2023-01-17T14:13:02.391Z,56.17
2023-01-17T14:15:33.788Z,56.81
2023-01-17T14:18:05.117Z,57.84
2023-01-17T14:20:44.254Z,58.07
2023-01-17T14:23:25.446Z,58.43
2023-01-17T14:25:53.475Z,58.69
2023-01-17T14:28:23.952Z,58.93
2023-01-17T14:30:56.106Z,58.59
2023-01-17T14:33:30.353Z,58.56
2023-01-17T14:36:14.415Z,59.31
2023-01-17T14:38:44.623Z,60.01
2023-01-17T14:41:19.125Z,60.90
2023-01-17T14:43:48.423Z,60.46
2023-01-17T14:46:28.599Z,61.26
2023-01-17T14:49:02.447Z,61.26
2023-01-17T14:51:29.916Z,61.27
2023-01-17T14:54:02.506Z,62.15
2023-01-17T14:56:31.446Z,61.92
2023-01-17T14:59:17.589Z,62.66
2023-01-17T15:02:06.164Z,63.16
2023-01-17T15:04:39.359Z,62.32
2023-01-17T15:07:07.784Z,61.48
2023-01-17T15:09:38.618Z,60.49
2023-01-17T15:12:10.509Z,58.89
2023-01-17T15:14:41.789Z,59.52
2023-01-17T15:17:20.494Z,59.40
2023-01-17T15:19:52.990Z,59.31
2023-01-17T15:22:20.559Z,58.10
2023-01-17T15:24:49.301Z,58.07
2023-01-17T15:27:17.086Z,58.13
2023-01-17T15:29:46.061Z,57.85
2023-01-17T15:32:20.391Z,57.17
2023-01-17T15:34:49.703Z,57.09
2023-01-17T15:37:32.826Z,56.61
2023-01-17T15:40:17.056Z,58.83
2023-01-17T15:42:46.937Z,57.75
2023-01-17T15:45:19.933Z,57.68
2023-01-17T15:47:47.044Z,58.89
2023-01-17T15:50:20.069Z,60.93
2023-01-17T15:53:02.681Z,61.62
2023-01-17T15:55:40.439Z,62.42
2023-01-17T15:58:28.575Z,62.33
2023-01-17T16:00:55.978Z,63.11
2023-01-17T16:03:24.309Z,63.73
2023-01-17T16:05:53.358Z,63.74
2023-01-17T16:08:32.115Z,63.08
2023-01-17T16:11:02.475Z,64.79
2023-01-17T16:13:31.766Z,65.44
2023-01-17T16:16:13.571Z,67.11
2023-01-17T16:18:40.899Z,67.15
2023-01-17T16:21:29.273Z,68.07
2023-01-17T16:23:56.880Z,69.98
2023-01-17T16:26:24.305Z,69.80
2023-01-17T16:28:51.891Z,70.45
2023-01-17T16:31:19.072Z,70.80
2023-01-17T16:33:49.485Z,70.87
2023-01-17T16:36:16.930Z,70.79
2023-01-17T16:38:45.413Z,69.35
2023-01-17T16:41:12.501Z,68.50
2023-01-17T16:43:39.620Z,68.59
2023-01-17T16:46:07.227Z,68.33
2023-01-17T16:48:34.184Z,67.09
2023-01-17T16:51:06.806Z,67.77
2023-01-17T16:53:35.115Z,68.74
2023-01-17T16:56:12.118Z,69.04
2023-01-17T16:58:39.812Z,70.79
2023-01-17T17:01:25.567Z,72.94
2023-01-17T17:03:52.647Z,73.86
2023-01-17T17:06:19.922Z,74.27
2023-01-17T17:08:47.774Z,74.58
2023-01-17T17:11:23.284Z,74.43
2023-01-17T17:13:51.354Z,74.89
2023-01-17T17:16:33.011Z,75.63
2023-01-17T17:19:03.568Z,76.60
2023-01-17T17:21:32.173Z,76.85
2023-01-17T17:24:00.954Z,77.53
2023-01-17T17:26:32.045Z,77.35
2023-01-17T17:28:59.149Z,77.08
2023-01-17T17:31:26.900Z,77.34
2023-01-17T17:33:58.767Z,76.88
2023-01-17T17:36:25.723Z,77.64
2023-01-17T17:38:55.494Z,77.94
2023-01-17T17:41:24.901Z,77.16
2023-01-17T17:43:52.444Z,78.46
2023-01-17T17:46:21.376Z,77.44
2023-01-17T17:48:49.599Z,77.44
2023-01-17T17:51:27.837Z,77.77
2023-01-17T17:53:57.996Z,76.50
2023-01-17T17:56:25.162Z,75.93
2023-01-17T17:58:52.341Z,75.99
2023-01-17T18:01:20.120Z,74.79
2023-01-17T18:03:47.401Z,75.57
2023-01-17T18:06:16.179Z,75.51
2023-01-17T18:08:43.783Z,76.08
2023-01-17T18:11:19.792Z,77.06
2023-01-17T18:13:47.923Z,75.79
2023-01-17T18:16:16.364Z,74.09
2023-01-17T18:18:48.988Z,73.58
2023-01-17T18:21:23.745Z,73.28
2023-01-17T18:23:59.997Z,72.70
2023-01-17T18:26:35.422Z,72.76
2023-01-17T18:29:03.506Z,73.04
2023-01-17T18:31:31.374Z,73.35
2023-01-17T18:34:05.972Z,74.09
2023-01-17T18:36:35.045Z,73.43
2023-01-17T18:39:03.921Z,72.37
2023-01-17T18:41:31.429Z,72.76
2023-01-17T18:43:58.413Z,76.75
2023-01-17T18:46:26.786Z,76.35
2023-01-17T18:48:57.170Z,75.10
2023-01-17T18:51:24.954Z,73.36
2023-01-17T18:53:53.086Z,71.96
2023-01-17T18:56:21.903Z,71.75
2023-01-17T18:58:50.411Z,72.66
2023-01-17T19:01:25.197Z,71.85
2023-01-17T19:03:54.323Z,73.59
2023-01-17T19:06:33.218Z,75.78
2023-01-17T19:09:00.845Z,77.08
2023-01-17T19:11:28.710Z,78.14
2023-01-17T19:13:56.298Z,78.64
2023-01-17T19:16:29.508Z,80.51
2023-01-17T19:18:58.520Z,81.85
2023-01-17T19:21:27.646Z,84.09
2023-01-17T19:23:56.078Z,84.10
2023-01-17T19:26:25.168Z,81.97
2023-01-17T19:28:52.982Z,81.53
2023-01-17T19:31:31.484Z,81.08
2023-01-17T19:33:59.864Z,79.46
2023-01-17T19:36:34.530Z,80.99
2023-01-17T19:39:05.900Z,79.46
2023-01-17T19:41:36.072Z,77.36
2023-01-17T19:44:06.051Z,78.78
2023-01-17T19:46:34.216Z,79.35
2023-01-17T19:49:01.900Z,80.88
2023-01-17T19:51:29.060Z,81.37
2023-01-17T19:53:59.195Z,83.52
2023-01-17T19:56:27.093Z,86.62
2023-01-17T19:58:54.709Z,87.22
2023-01-17T20:01:25.356Z,85.81
2023-01-17T20:03:53.013Z,84.88
2023-01-17T20:06:22.141Z,84.84
2023-01-17T20:08:49.112Z,84.86
2023-01-17T20:11:19.786Z,83.84
2023-01-17T20:13:47.760Z,83.22
2023-01-17T20:16:16.761Z,82.51
2023-01-17T20:18:44.611Z,83.01
2023-01-17T20:21:12.437Z,81.97
2023-01-17T20:23:43.137Z,81.98
2023-01-17T20:26:18.737Z,82.27
2023-01-17T20:28:47.650Z,80.99
2023-01-17T20:31:17.736Z,84.13
2023-01-17T20:33:47.049Z,84.98
2023-01-17T20:36:15.606Z,86.03
2023-01-17T20:38:46.574Z,87.99
2023-01-17T20:41:19.141Z,87.65
2023-01-17T20:43:48.460Z,88.19
2023-01-17T20:46:16.371Z,87.62
2023-01-17T20:48:48.204Z,88.42
2023-01-17T20:51:15.795Z,87.74
2023-01-17T20:53:44.744Z,88.10
2023-01-17T20:56:14.663Z,88.70
2023-01-17T20:58:42.676Z,88.25
2023-01-17T21:01:11.923Z,88.72
2023-01-17T21:03:40.082Z,88.18
2023-01-17T21:06:10.032Z,86.92
2023-01-17T21:08:39.458Z,86.29
2023-01-17T21:11:08.735Z,85.57
2023-01-17T21:13:35.659Z,86.06
2023-01-17T21:16:03.471Z,85.92
2023-01-17T21:18:33.951Z,85.32
2023-01-17T21:21:08.367Z,84.88
2023-01-17T21:23:36.517Z,84.65
2023-01-17T21:26:04.612Z,86.24
2023-01-17T21:28:36.784Z,86.14
2023-01-17T21:31:25.175Z,86.91
2023-01-17T21:34:04.514Z,87.85
2023-01-17T21:36:37.391Z,89.80
2023-01-17T21:39:07.631Z,89.81
2023-01-17T21:41:39.736Z,89.49
2023-01-17T21:44:20.745Z,88.75
2023-01-17T21:46:48.276Z,88.85
2023-01-17T21:49:15.568Z,89.27
2023-01-17T21:51:55.436Z,89.21
2023-01-17T21:55:07.192Z,90.49
2023-01-17T21:57:52.364Z,93.05
2023-01-17T22:00:19.554Z,92.94
2023-01-17T22:02:47.749Z,92.84
2023-01-17T22:05:16.942Z,94.87
2023-01-17T22:08:04.669Z,94.47
2023-01-17T22:10:31.782Z,91.48
2023-01-17T22:12:58.788Z,89.09
2023-01-17T22:15:25.783Z,87.47
2023-01-17T22:17:52.803Z,85.18
2023-01-17T22:20:21.115Z,85.47
2023-01-17T22:22:48.405Z,84.45
2023-01-17T22:25:15.503Z,83.68
2023-01-17T22:27:42.359Z,82.83
2023-01-17T22:30:13.078Z,83.57
2023-01-17T22:32:40.400Z,83.38
2023-01-17T22:35:08.224Z,82.79
2023-01-17T22:37:35.419Z,84.09
2023-01-17T22:40:04.991Z,83.89
2023-01-17T22:42:34.998Z,83.69
2023-01-17T22:45:02.224Z,84.42
2023-01-17T22:47:29.373Z,84.38
2023-01-17T22:49:56.315Z,83.97
2023-01-17T22:52:23.172Z,84.18
2023-01-17T22:54:50.732Z,83.78
2023-01-17T22:57:18.339Z,83.40
2023-01-17T22:59:45.172Z,83.13
2023-01-17T23:02:12.187Z,83.57
2023-01-17T23:04:39.059Z,82.97
2023-01-17T23:07:05.901Z,82.41
2023-01-17T23:09:33.184Z,83.53
2023-01-17T23:12:00.397Z,82.82
2023-01-17T23:14:52.560Z,81.44
2023-01-17T23:17:43.105Z,81.86
2023-01-17T23:20:11.547Z,82.43
2023-01-17T23:22:38.755Z,82.10
2023-01-17T23:25:09.403Z,81.15
2023-01-17T23:28:03.513Z,81.85
2023-01-17T23:30:40.966Z,82.52
2023-01-17T23:33:10.337Z,81.82
2023-01-17T23:35:42.560Z,81.51
2023-01-17T23:38:37.626Z,80.77
2023-01-17T23:41:24.435Z,81.85
2023-01-17T23:43:52.823Z,81.12
2023-01-17T23:46:20.027Z,81.00
2023-01-17T23:48:47.225Z,80.59
2023-01-17T23:51:14.350Z,80.65
2023-01-17T23:53:41.588Z,79.98
2023-01-17T23:56:20.850Z,79.60
2023-01-17T23:58:48.287Z,80.81
